Time;durP1;ratioP1;P1;durP2;ratioP2;P2;SDS_P1;SDS_P2;PMS_P1;PMS_P2;Temp;Humidity;BMP_temperature;BMP_pressure;BME280_temperature;BME280_humidity;BME280_pressure;Samples;Min_cycle;Max_cycle;Signal;HPM_P1;HPM_P2
2024/02/17 00:00:34;;;;;;;28.65;9.68;;;;;;;3.06;100.00;101405.97;5042857;28;20380;-66
2024/02/17 00:03:01;;;;;;;19.00;9.52;;;;;;;3.07;100.00;101417.09;5043339;28;20101;-65
2024/02/17 00:05:26;;;;;;;17.58;8.77;;;;;;;3.07;100.00;101417.94;5052746;28;20059;-66
2024/02/17 00:07:52;;;;;;;16.83;7.82;;;;;;;3.03;100.00;101410.41;5040134;28;20037;-66
2024/02/17 00:10:18;;;;;;;14.82;7.55;;;;;;;2.95;100.00;101409.03;5049534;28;20059;-65
2024/02/17 00:12:44;;;;;;;17.58;8.50;;;;;;;2.96;100.00;101420.19;5047913;28;20190;-66
2024/02/17 00:15:09;;;;;;;19.75;8.63;;;;;;;2.90;100.00;101418.72;5052191;28;20020;-66
2024/02/17 00:17:36;;;;;;;18.52;8.45;;;;;;;2.89;100.00;101427.34;5049029;28;20500;-66
2024/02/17 00:20:01;;;;;;;19.52;8.48;;;;;;;2.87;100.00;101426.59;5044690;28;20040;-66
2024/02/17 00:22:27;;;;;;;21.00;8.02;;;;;;;2.86;100.00;101431.81;5041386;28;20025;-65
2024/02/17 00:24:52;;;;;;;20.33;9.20;;;;;;;2.85;100.00;101430.13;5047891;28;20040;-65
2024/02/17 00:27:19;;;;;;;23.08;10.27;;;;;;;2.82;100.00;101435.44;5036361;28;20494;-66
2024/02/17 00:29:45;;;;;;;19.95;9.38;;;;;;;2.81;100.00;101431.22;5040308;28;20169;-65
2024/02/17 00:32:10;;;;;;;19.55;10.45;;;;;;;2.83;100.00;101427.66;5053966;28;20095;-65
2024/02/17 00:34:36;;;;;;;21.48;9.85;;;;;;;2.84;100.00;101429.31;5039311;28;20060;-65
2024/02/17 00:37:02;;;;;;;25.00;10.52;;;;;;;2.82;100.00;101438.03;5044802;28;20095;-65
2024/02/17 00:39:28;;;;;;;23.20;8.65;;;;;;;2.79;100.00;101431.28;5039027;28;20033;-65
2024/02/17 00:41:54;;;;;;;17.08;9.73;;;;;;;2.78;100.00;101437.34;5033023;28;20049;-65
2024/02/17 00:44:19;;;;;;;20.85;10.10;;;;;;;2.75;100.00;101442.63;5055114;28;20112;-65
2024/02/17 00:46:45;;;;;;;28.90;9.77;;;;;;;2.72;100.00;101437.63;5038959;28;20112;-65
2024/02/17 00:49:10;;;;;;;21.38;9.57;;;;;;;2.69;100.00;101442.91;5043956;28;20025;-66
2024/02/17 00:51:36;;;;;;;20.23;9.27;;;;;;;2.63;100.00;101444.00;5054418;28;20039;-66
2024/02/17 00:54:02;;;;;;;14.30;7.88;;;;;;;2.58;100.00;101445.13;5047861;28;20028;-65
2024/02/17 00:56:27;;;;;;;15.13;7.72;;;;;;;2.54;100.00;101443.59;5038228;28;20041;-65
2024/02/17 00:58:53;;;;;;;16.67;8.00;;;;;;;2.55;100.00;101440.13;5047355;28;20382;-65
2024/02/17 01:01:19;;;;;;;14.32;7.15;;;;;;;2.53;100.00;101431.63;5034711;28;20455;-65
2024/02/17 01:03:44;;;;;;;17.77;7.25;;;;;;;2.54;100.00;101443.59;5043732;28;20036;-66
2024/02/17 01:06:10;;;;;;;11.68;6.28;;;;;;;2.52;100.00;101437.69;5040059;28;20033;-66
2024/02/17 01:08:35;;;;;;;11.30;5.95;;;;;;;2.48;100.00;101438.72;5044932;28;20463;-66
2024/02/17 01:11:01;;;;;;;11.02;5.15;;;;;;;2.59;100.00;101434.75;5048869;28;20538;-65
2024/02/17 01:13:26;;;;;;;12.75;6.53;;;;;;;2.75;100.00;101429.75;5049399;28;20037;-65
2024/02/17 01:15:52;;;;;;;11.15;4.80;;;;;;;2.98;100.00;101426.91;5046920;28;20025;-65
2024/02/17 01:18:17;;;;;;;11.48;5.28;;;;;;;3.12;100.00;101433.16;5044091;28;20037;-65
2024/02/17 01:20:43;;;;;;;13.52;6.20;;;;;;;3.08;100.00;101429.06;5042830;28;20037;-65
2024/02/17 01:23:08;;;;;;;11.45;5.88;;;;;;;2.88;100.00;101428.25;5044174;28;20157;-65
2024/02/17 01:25:34;;;;;;;12.93;6.15;;;;;;;2.70;100.00;101434.28;5042741;28;20030;-66
2024/02/17 01:27:59;;;;;;;10.30;5.45;;;;;;;2.53;100.00;101423.91;5045553;28;20033;-66
2024/02/17 01:30:24;;;;;;;12.38;6.50;;;;;;;2.44;100.00;101417.44;5042114;28;20033;-66
2024/02/17 01:32:50;;;;;;;13.25;6.03;;;;;;;2.42;100.00;101420.97;5044361;28;20097;-66
2024/02/17 01:35:15;;;;;;;10.43;5.55;;;;;;;2.45;100.00;101420.84;5049697;28;20140;-66
2024/02/17 01:37:41;;;;;;;12.30;5.43;;;;;;;2.40;100.00;101421.06;5035370;28;20029;-66
2024/02/17 01:40:07;;;;;;;7.47;4.70;;;;;;;2.39;100.00;101426.25;5049103;28;20037;-66
2024/02/17 01:42:32;;;;;;;16.95;5.70;;;;;;;2.38;100.00;101419.44;5040097;28;20029;-66
2024/02/17 01:44:57;;;;;;;9.02;5.15;;;;;;;2.33;100.00;101425.66;5037817;28;20457;-66
2024/02/17 01:47:23;;;;;;;6.78;4.18;;;;;;;2.31;100.00;101424.06;5037341;28;20116;-66
2024/02/17 01:49:49;;;;;;;9.73;4.70;;;;;;;2.29;100.00;101421.56;5040517;28;20916;-66
2024/02/17 01:52:15;;;;;;;8.20;4.30;;;;;;;2.29;100.00;101418.16;5047983;28;20032;-66
2024/02/17 01:54:42;;;;;;;11.80;5.53;;;;;;;2.30;100.00;101425.81;5040171;28;20029;-66
2024/02/17 01:57:09;;;;;;;10.20;4.10;;;;;;;2.38;100.00;101425.44;5049912;28;20029;-66
2024/02/17 01:59:36;;;;;;;8.55;3.70;;;;;;;2.83;100.00;101412.22;5047050;28;20033;-66
2024/02/17 02:02:03;;;;;;;7.57;3.78;;;;;;;3.16;100.00;101411.50;5049129;28;20474;-66
2024/02/17 02:04:29;;;;;;;7.65;3.38;;;;;;;3.13;100.00;101415.06;5046437;28;20036;-66
2024/02/17 02:06:54;;;;;;;15.57;3.78;;;;;;;2.95;100.00;101419.34;5044298;28;20515;-66
2024/02/17 02:09:23;;;;;;;8.20;3.28;;;;;;;2.77;100.00;101421.97;5044648;28;20044;-66
2024/02/17 02:11:53;;;;;;;5.10;3.13;;;;;;;2.66;100.00;101413.00;5054182;28;20041;-66
2024/02/17 02:14:20;;;;;;;11.15;3.53;;;;;;;2.63;100.00;101414.88;5049052;28;20371;-66
2024/02/17 02:16:49;;;;;;;9.63;4.50;;;;;;;2.60;100.00;101412.44;5046740;28;20038;-66
2024/02/17 02:19:15;;;;;;;7.63;3.85;;;;;;;2.53;100.00;101413.63;5051721;28;20021;-66
2024/02/17 02:21:42;;;;;;;8.95;3.45;;;;;;;2.52;100.00;101404.25;5048682;28;20029;-66
2024/02/17 02:24:08;;;;;;;8.25;3.65;;;;;;;2.51;100.00;101402.56;5041517;28;20466;-66
2024/02/17 02:26:34;;;;;;;9.32;4.93;;;;;;;2.50;100.00;101399.16;5042142;28;20025;-66
2024/02/17 02:29:00;;;;;;;11.82;5.10;;;;;;;2.51;100.00;101407.72;5050447;28;20029;-66
2024/02/17 02:31:26;;;;;;;12.70;6.60;;;;;;;2.70;100.00;101403.41;5048250;28;20387;-66
2024/02/17 02:33:52;;;;;;;16.55;7.03;;;;;;;2.87;100.00;101400.84;5052454;28;20040;-66
2024/02/17 02:36:18;;;;;;;16.38;9.07;;;;;;;2.82;100.00;101402.00;5055326;28;20048;-66
2024/02/17 02:38:44;;;;;;;19.17;9.60;;;;;;;2.81;100.00;101401.16;5049851;28;20031;-66
2024/02/17 02:41:11;;;;;;;23.73;11.82;;;;;;;2.86;100.00;101404.31;5056599;28;20025;-67
2024/02/17 02:43:37;;;;;;;24.50;11.10;;;;;;;2.85;100.00;101402.66;5048366;28;20032;-66
2024/02/17 02:46:02;;;;;;;22.08;10.70;;;;;;;2.87;100.00;101402.59;5051901;28;20079;-66
2024/02/17 02:48:28;;;;;;;21.35;11.13;;;;;;;2.81;100.00;101398.59;5050136;28;20485;-66
2024/02/17 02:50:53;;;;;;;23.45;11.95;;;;;;;2.78;100.00;101403.88;5042284;28;20064;-66
2024/02/17 02:53:19;;;;;;;28.70;11.10;;;;;;;2.73;100.00;101397.28;5041442;28;20028;-66
2024/02/17 02:55:44;;;;;;;25.70;12.70;;;;;;;2.73;100.00;101405.84;5039259;28;20076;-66
2024/02/17 02:58:10;;;;;;;19.35;11.68;;;;;;;2.73;100.00;101405.84;5045535;28;20194;-66
2024/02/17 03:00:35;;;;;;;20.80;11.68;;;;;;;2.69;100.00;101404.31;5052161;28;21929;-66
2024/02/17 03:03:00;;;;;;;20.52;11.23;;;;;;;2.70;100.00;101407.72;5049823;28;20112;-66
2024/02/17 03:05:27;;;;;;;26.17;11.18;;;;;;;2.78;100.00;101401.31;5049232;28;20040;-66
2024/02/17 03:07:52;;;;;;;25.40;12.30;;;;;;;2.76;100.00;101408.25;5049312;28;20120;-66
2024/02/17 03:10:18;;;;;;;28.20;12.35;;;;;;;2.76;100.00;101410.00;5044789;28;20112;-66
2024/02/17 03:12:43;;;;;;;23.95;10.10;;;;;;;2.92;100.00;101411.75;5049475;28;20102;-66
2024/02/17 03:15:09;;;;;;;20.60;7.75;;;;;;;3.29;100.00;101418.56;5051882;28;20478;-66
2024/02/17 03:17:36;;;;;;;14.60;7.93;;;;;;;3.60;100.00;101406.72;5052772;28;20037;-66
2024/02/17 03:20:04;;;;;;;11.32;6.50;;;;;;;3.76;100.00;101412.78;5046469;28;20104;-66
2024/02/17 03:22:30;;;;;;;13.32;6.47;;;;;;;3.83;100.00;101414.13;5048958;28;20127;-66
2024/02/17 03:24:55;;;;;;;13.25;5.88;;;;;;;3.95;100.00;101417.81;5042709;28;20033;-66
2024/02/17 03:27:21;;;;;;;12.98;5.85;;;;;;;3.98;100.00;101417.66;5039215;28;20036;-66
2024/02/17 03:29:46;;;;;;;10.10;5.22;;;;;;;3.91;100.00;101418.88;5050091;28;20746;-66
2024/02/17 03:32:12;;;;;;;8.98;2.70;;;;;;;4.20;100.00;101425.97;5049197;28;20036;-66
2024/02/17 03:34:38;;;;;;;5.03;1.55;;;;;;;4.46;100.00;101421.16;5043694;28;20140;-66
2024/02/17 03:37:04;;;;;;;5.70;1.70;;;;;;;4.61;100.00;101425.50;5053912;28;20112;-66
2024/02/17 03:39:29;;;;;;;6.40;1.60;;;;;;;4.74;100.00;101423.06;5048709;28;20063;-66
2024/02/17 03:41:55;;;;;;;3.33;1.17;;;;;;;4.80;100.00;101422.72;5043284;28;20039;-66
2024/02/17 03:44:20;;;;;;;3.00;0.88;;;;;;;4.82;100.00;101429.47;5051763;28;20033;-66
2024/02/17 03:46:46;;;;;;;8.38;1.73;;;;;;;4.64;100.00;101433.91;5050003;28;20037;-66
2024/02/17 03:49:11;;;;;;;4.28;0.93;;;;;;;4.78;100.00;101419.41;5045105;28;20032;-66
2024/02/17 03:51:37;;;;;;;3.78;1.50;;;;;;;4.97;100.00;101428.63;5053400;28;20037;-66
2024/02/17 03:54:03;;;;;;;4.55;0.98;;;;;;;5.24;100.00;101434.00;5043959;28;20036;-66
2024/02/17 03:56:28;;;;;;;4.40;0.82;;;;;;;5.32;100.00;101441.31;5050674;28;20424;-66
2024/02/17 03:58:54;;;;;;;2.97;1.00;;;;;;;5.37;98.84;101441.88;5047295;28;20021;-66
2024/02/17 04:01:21;;;;;;;3.53;1.17;;;;;;;5.24;100.00;101446.06;5050548;28;20029;-66
2024/02/17 04:03:46;;;;;;;4.60;1.15;;;;;;;5.11;100.00;101447.72;5045073;28;20033;-66
2024/02/17 04:06:12;;;;;;;3.70;1.67;;;;;;;5.10;100.00;101452.03;5052137;28;20020;-66
2024/02/17 04:08:37;;;;;;;2.97;1.17;;;;;;;5.08;100.00;101458.22;5042250;28;20029;-66
2024/02/17 04:11:03;;;;;;;4.53;1.42;;;;;;;5.00;100.00;101462.03;5044531;28;20127;-66
2024/02/17 04:13:29;;;;;;;2.72;1.17;;;;;;;4.97;100.00;101456.22;5049602;28;20508;-66
2024/02/17 04:15:54;;;;;;;5.40;0.70;;;;;;;4.87;100.00;101460.22;5048636;28;20025;-66
2024/02/17 04:18:20;;;;;;;4.72;1.35;;;;;;;4.87;100.00;101462.78;5041988;28;20112;-66
2024/02/17 04:20:46;;;;;;;3.30;0.98;;;;;;;4.92;100.00;101461.63;5051829;28;20041;-66
2024/02/17 04:23:12;;;;;;;3.70;1.20;;;;;;;4.96;100.00;101470.03;5050017;28;20025;-66
2024/02/17 04:25:40;;;;;;;4.32;1.02;;;;;;;4.97;100.00;101471.72;5037517;28;20036;-66
2024/02/17 04:28:05;;;;;;;3.85;1.23;;;;;;;5.08;100.00;101478.88;5046445;28;20025;-66
2024/02/17 04:30:32;;;;;;;2.55;0.98;;;;;;;5.02;100.00;101479.22;5046192;28;20028;-66
2024/02/17 04:33:00;;;;;;;2.97;0.90;;;;;;;4.89;100.00;101481.63;5047034;28;20043;-66
2024/02/17 04:35:26;;;;;;;1.95;0.93;;;;;;;4.95;100.00;101478.69;5050625;28;20049;-66
2024/02/17 04:37:53;;;;;;;2.40;1.10;;;;;;;4.92;100.00;101479.69;5049160;28;20111;-66
2024/02/17 04:40:19;;;;;;;3.47;1.33;;;;;;;4.93;100.00;101483.94;5047915;28;20036;-66
2024/02/17 04:42:44;;;;;;;2.90;1.00;;;;;;;4.98;100.00;101492.28;5045425;28;20037;-66
2024/02/17 04:45:10;;;;;;;3.63;1.17;;;;;;;5.02;100.00;101492.13;5044110;28;20547;-66
2024/02/17 04:47:36;;;;;;;5.47;1.25;;;;;;;5.02;100.00;101492.13;5043999;28;20043;-66
2024/02/17 04:50:02;;;;;;;4.03;1.40;;;;;;;5.03;100.00;101496.38;5044979;28;20120;-66
2024/02/17 04:52:27;;;;;;;2.88;0.60;;;;;;;5.02;100.00;101494.69;5048142;28;20041;-66
2024/02/17 04:54:53;;;;;;;7.40;1.40;;;;;;;5.02;100.00;101489.53;5043925;28;20474;-66
2024/02/17 04:57:18;;;;;;;2.53;1.30;;;;;;;5.05;100.00;101495.38;5044358;28;20589;-66
2024/02/17 04:59:44;;;;;;;2.47;0.80;;;;;;;5.21;98.31;101497.91;5032043;28;20060;-66
2024/02/17 05:02:10;;;;;;;2.33;1.05;;;;;;;5.24;97.62;101505.50;5046075;28;20390;-67
2024/02/17 05:04:35;;;;;;;3.63;0.90;;;;;;;5.16;98.61;101505.13;5044146;28;20103;-66
2024/02/17 05:07:01;;;;;;;3.90;2.08;;;;;;;4.95;100.00;101502.78;5040597;28;20029;-66
2024/02/17 05:09:26;;;;;;;9.43;3.45;;;;;;;4.66;100.00;101509.53;5039667;28;20029;-66
2024/02/17 05:11:55;;;;;;;13.73;5.55;;;;;;;4.29;100.00;101518.31;5035071;28;20498;-66
2024/02/17 05:14:21;;;;;;;9.80;4.95;;;;;;;4.19;100.00;101514.56;5052691;28;20043;-66
2024/02/17 05:16:47;;;;;;;14.30;8.00;;;;;;;4.00;100.00;101519.81;5046852;28;20025;-67
2024/02/17 05:19:13;;;;;;;15.25;6.93;;;;;;;3.85;100.00;101522.31;5038351;28;20026;-66
2024/02/17 05:21:41;;;;;;;14.68;6.57;;;;;;;3.76;100.00;101517.66;5046917;28;20102;-66
2024/02/17 05:24:08;;;;;;;7.97;4.38;;;;;;;4.18;100.00;101522.41;5040185;28;20029;-66
2024/02/17 05:26:38;;;;;;;13.60;6.95;;;;;;;4.20;100.00;101518.00;5043927;28;20086;-66
2024/02/17 05:29:07;;;;;;;15.95;7.18;;;;;;;3.98;100.00;101511.31;5047670;28;20025;-66
2024/02/17 05:31:34;;;;;;;13.00;6.53;;;;;;;3.82;100.00;101515.56;5039422;28;20334;-66
2024/02/17 05:34:00;;;;;;;14.00;7.28;;;;;;;3.78;100.00;101519.19;5048760;28;20053;-66
2024/02/17 05:36:29;;;;;;;15.95;5.75;;;;;;;3.91;100.00;101515.13;5050150;28;20029;-66
2024/02/17 05:38:55;;;;;;;9.48;3.83;;;;;;;4.15;100.00;101520.81;5046165;28;20060;-66
2024/02/17 05:41:21;;;;;;;3.25;1.55;;;;;;;4.45;100.00;101520.13;5043018;28;20029;-66
2024/02/17 05:43:46;;;;;;;4.07;1.40;;;;;;;4.77;100.00;101523.59;5040007;28;20041;-66
2024/02/17 05:46:12;;;;;;;2.67;0.88;;;;;;;4.95;100.00;101525.19;5047153;28;20112;-66
2024/02/17 05:48:37;;;;;;;3.20;1.10;;;;;;;5.02;100.00;101526.53;5052302;28;20041;-66
2024/02/17 05:51:03;;;;;;;3.30;1.02;;;;;;;5.00;100.00;101533.53;5051053;28;20037;-66
2024/02/17 05:53:29;;;;;;;2.67;1.05;;;;;;;4.98;100.00;101535.34;5045847;28;20048;-66
2024/02/17 05:55:55;;;;;;;3.55;1.38;;;;;;;5.01;100.00;101542.94;5048436;28;20040;-66
2024/02/17 05:58:21;;;;;;;5.72;0.93;;;;;;;5.02;99.78;101546.34;5052939;28;20087;-66
2024/02/17 06:00:47;;;;;;;4.50;0.90;;;;;;;4.95;99.73;101546.69;5049797;28;20029;-66
2024/02/17 06:03:13;;;;;;;3.00;1.20;;;;;;;4.96;99.39;101543.19;5046807;28;20029;-66
2024/02/17 06:05:38;;;;;;;2.33;0.73;;;;;;;5.02;99.61;101554.09;5045750;28;20048;-66
2024/02/17 06:08:04;;;;;;;3.35;1.08;;;;;;;4.98;99.47;101561.19;5052973;28;20033;-66
2024/02/17 06:10:30;;;;;;;5.57;1.30;;;;;;;4.99;99.73;101562.84;5050538;28;20040;-66
2024/02/17 06:12:55;;;;;;;4.18;1.20;;;;;;;4.98;99.55;101566.34;5047518;28;20398;-66
2024/02/17 06:15:21;;;;;;;3.80;1.15;;;;;;;5.03;98.54;101568.69;5052491;28;20025;-66
2024/02/17 06:21:09;;;;;;;2.45;0.65;;;;;;;5.06;98.06;101573.69;5051200;28;20037;-66
2024/02/17 06:23:21;;;;;;;4.10;1.02;;;;;;;5.14;97.72;101580.13;5042678;28;20044;-67
2024/02/17 06:25:49;;;;;;;3.88;0.80;;;;;;;5.10;97.84;101577.78;5045648;28;20048;-67
2024/02/17 06:28:14;;;;;;;7.30;1.20;;;;;;;5.23;96.52;101582.19;5041831;28;20098;-66
2024/02/17 06:30:40;;;;;;;2.05;0.85;;;;;;;5.31;95.98;101592.09;5048458;28;20111;-66
2024/02/17 06:33:05;;;;;;;2.88;1.05;;;;;;;5.36;96.24;101586.69;5051820;28;20079;-66
2024/02/17 06:35:31;;;;;;;3.55;1.13;;;;;;;5.41;95.10;101589.88;5051147;28;20159;-66
2024/02/17 06:37:56;;;;;;;2.45;0.95;;;;;;;5.46;94.51;101599.03;5046983;28;20465;-66
2024/02/17 06:40:22;;;;;;;5.68;1.55;;;;;;;5.52;94.96;101603.88;5045618;28;20123;-66
2024/02/17 06:42:47;;;;;;;2.45;0.70;;;;;;;5.54;94.90;101607.22;5044920;28;20155;-66
2024/02/17 06:45:16;;;;;;;3.00;0.75;;;;;;;5.55;95.23;101608.88;5051532;28;20055;-66
2024/02/17 06:47:45;;;;;;;2.85;1.33;;;;;;;5.58;94.86;101608.72;5050611;28;20029;-66
2024/02/17 06:50:11;;;;;;;5.25;1.05;;;;;;;5.71;93.21;101613.19;5053653;28;20398;-66
2024/02/17 06:52:37;;;;;;;5.50;1.48;;;;;;;5.76;93.95;101611.16;5053216;28;20661;-66
2024/02/17 06:55:03;;;;;;;3.60;0.85;;;;;;;5.82;93.46;101616.00;5051017;28;20044;-66
2024/02/17 06:57:28;;;;;;;2.05;1.00;;;;;;;5.88;92.33;101613.06;5050269;28;20043;-66
2024/02/17 06:59:54;;;;;;;6.82;2.78;;;;;;;5.75;95.75;101618.09;5050341;28;20029;-66
2024/02/17 07:02:22;;;;;;;10.05;5.50;;;;;;;5.39;97.84;101625.28;5052766;28;20024;-66
2024/02/17 07:04:49;;;;;;;18.13;6.03;;;;;;;5.26;100.00;101625.94;5050381;28;20045;-66
2024/02/17 07:07:14;;;;;;;13.77;5.40;;;;;;;5.32;100.00;101628.22;5044353;28;20405;-66
2024/02/17 07:09:40;;;;;;;15.20;6.57;;;;;;;5.49;100.00;101626.47;5049682;28;20029;-66
2024/02/17 07:12:06;;;;;;;14.65;7.30;;;;;;;5.49;100.00;101627.31;5046800;28;20434;-66
2024/02/17 07:14:31;;;;;;;16.33;8.05;;;;;;;5.40;100.00;101635.56;5040550;28;20041;-66
2024/02/17 07:16:57;;;;;;;15.85;8.57;;;;;;;5.44;100.00;101637.06;5049724;28;20036;-67
2024/02/17 07:19:23;;;;;;;15.25;8.00;;;;;;;5.56;100.00;101633.81;5047418;28;20021;-66
2024/02/17 07:21:48;;;;;;;16.65;9.60;;;;;;;5.57;100.00;101643.22;5049059;28;20037;-66
2024/02/17 07:24:14;;;;;;;22.33;9.75;;;;;;;5.60;100.00;101642.22;5046815;28;20451;-66
2024/02/17 07:26:43;;;;;;;13.55;7.00;;;;;;;5.81;100.00;101647.94;5044761;28;20033;-66
2024/02/17 07:29:11;;;;;;;14.80;7.35;;;;;;;6.01;100.00;101647.72;5051969;28;20116;-66
2024/02/17 07:31:43;;;;;;;13.27;6.30;;;;;;;6.14;100.00;101651.28;5050795;28;20041;-66
2024/02/17 07:34:11;;;;;;;17.00;3.80;;;;;;;6.39;99.74;101655.88;5042508;28;20037;-66
2024/02/17 07:36:37;;;;;;;8.40;3.55;;;;;;;6.66;95.87;101661.19;5044724;28;20037;-66
2024/02/17 07:39:03;;;;;;;4.72;1.63;;;;;;;6.83;93.23;101670.56;5033274;28;20115;-66
2024/02/17 07:41:29;;;;;;;3.53;0.93;;;;;;;6.94;89.97;101661.22;5044294;28;20045;-66
2024/02/17 07:43:54;;;;;;;2.55;1.13;;;;;;;6.98;90.90;101667.06;5042855;28;20039;-66
2024/02/17 07:46:20;;;;;;;3.67;1.20;;;;;;;7.02;90.17;101670.28;5035693;28;20032;-66
2024/02/17 07:48:46;;;;;;;4.53;0.93;;;;;;;7.04;88.08;101673.63;5047100;28;20032;-66
2024/02/17 07:51:12;;;;;;;2.35;0.70;;;;;;;7.05;88.82;101680.47;5034888;28;20033;-66
2024/02/17 07:53:38;;;;;;;3.10;1.25;;;;;;;7.05;88.05;101683.06;5042184;28;20071;-66
2024/02/17 07:56:04;;;;;;;1.40;0.73;;;;;;;7.08;88.42;101682.88;5048094;28;20060;-66
2024/02/17 07:58:30;;;;;;;3.00;1.10;;;;;;;7.13;89.36;101681.66;5044629;28;20029;-66
2024/02/17 08:00:55;;;;;;;6.15;1.23;;;;;;;7.19;87.54;101685.63;5033446;28;20029;-66
2024/02/17 08:03:21;;;;;;;4.05;1.00;;;;;;;7.18;88.28;101684.81;5048035;28;20043;-66
2024/02/17 08:05:46;;;;;;;1.75;0.80;;;;;;;7.19;87.21;101690.81;5048225;28;20029;-66
2024/02/17 08:08:12;;;;;;;3.92;1.10;;;;;;;7.24;86.42;101699.16;5054448;28;20453;-66
2024/02/17 08:10:37;;;;;;;2.70;0.70;;;;;;;7.28;87.77;101693.69;5046591;28;20045;-66
2024/02/17 08:13:04;;;;;;;3.53;0.93;;;;;;;7.29;87.12;101703.13;5043880;28;20040;-66
2024/02/17 08:15:29;;;;;;;3.08;1.02;;;;;;;7.29;86.72;101697.13;5039002;28;20391;-66
2024/02/17 08:17:55;;;;;;;2.00;0.77;;;;;;;7.33;86.92;101699.44;5043319;28;20037;-66
2024/02/17 08:20:21;;;;;;;2.25;0.70;;;;;;;7.35;86.26;101698.50;5045206;28;20068;-66
2024/02/17 08:22:48;;;;;;;7.70;1.10;;;;;;;7.36;87.98;101703.59;5048640;28;20159;-66
2024/02/17 08:25:13;;;;;;;3.42;1.23;;;;;;;7.36;86.74;101711.38;5045807;28;20037;-66
2024/02/17 08:27:41;;;;;;;5.70;1.20;;;;;;;7.41;86.60;101705.91;5048813;28;20494;-66
2024/02/17 08:30:06;;;;;;;4.35;0.70;;;;;;;7.48;86.78;101713.22;5046551;28;20041;-66
2024/02/17 08:32:32;;;;;;;2.28;0.57;;;;;;;7.58;85.76;101708.28;5040904;28;20619;-66
2024/02/17 08:34:58;;;;;;;5.93;0.90;;;;;;;7.58;85.86;101714.31;5044747;28;20059;-66
2024/02/17 08:37:23;;;;;;;1.42;0.60;;;;;;;7.63;86.15;101708.84;5033744;28;20037;-66
2024/02/17 08:39:49;;;;;;;4.60;0.80;;;;;;;7.72;85.32;101710.03;5040158;28;20033;-66
2024/02/17 08:42:15;;;;;;;5.03;1.45;;;;;;;7.78;84.25;101712.25;5047828;28;20053;-66
2024/02/17 08:44:40;;;;;;;4.38;0.90;;;;;;;7.91;84.55;101710.53;5039452;28;20057;-66
2024/02/17 08:47:06;;;;;;;2.63;1.35;;;;;;;8.03;83.73;101712.38;5033442;28;20044;-66
2024/02/17 08:49:31;;;;;;;4.70;0.80;;;;;;;8.09;83.48;101714.53;5039065;28;20039;-66
2024/02/17 08:51:57;;;;;;;4.20;1.08;;;;;;;8.19;83.71;101717.38;5050010;28;20025;-66
2024/02/17 08:54:25;;;;;;;3.92;0.93;;;;;;;8.25;81.82;101715.22;5046402;28;20041;-66
2024/02/17 08:56:51;;;;;;;1.17;0.45;;;;;;;8.31;82.99;101720.03;5037649;28;20033;-66
2024/02/17 08:59:17;;;;;;;4.03;1.27;;;;;;;8.43;83.07;101723.63;5044741;28;20024;-66
2024/02/17 09:01:42;;;;;;;4.82;0.73;;;;;;;8.51;82.39;101721.34;5047573;28;20036;-66
2024/02/17 09:04:08;;;;;;;7.25;0.73;;;;;;;8.60;81.90;101723.34;5044735;28;20091;-66
2024/02/17 09:06:33;;;;;;;2.13;1.00;;;;;;;8.64;82.44;101727.41;5046539;28;20037;-67
2024/02/17 09:08:59;;;;;;;4.10;0.90;;;;;;;8.75;79.71;101726.69;5045816;28;20037;-66
2024/02/17 09:11:24;;;;;;;3.55;1.10;;;;;;;8.87;80.23;101725.88;5049318;28;20033;-66
2024/02/17 09:13:50;;;;;;;2.33;0.70;;;;;;;8.89;81.11;101728.38;5044725;28;20490;-66
2024/02/17 09:16:16;;;;;;;3.33;0.98;;;;;;;8.81;81.27;101728.06;5040406;28;20071;-66
2024/02/17 09:18:42;;;;;;;6.78;0.80;;;;;;;8.85;82.63;101730.34;5047455;28;20454;-66
2024/02/17 09:21:07;;;;;;;3.30;0.80;;;;;;;9.03;81.21;101735.22;5052912;28;20036;-66
2024/02/17 09:23:32;;;;;;;3.58;1.00;;;;;;;9.11;81.71;101730.34;5049056;28;20037;-66
2024/02/17 09:25:58;;;;;;;2.72;0.75;;;;;;;9.23;82.16;101730.34;5045173;28;20051;-66
2024/02/17 09:28:23;;;;;;;3.55;0.90;;;;;;;9.20;82.24;101730.56;5049497;28;20044;-66
2024/02/17 09:30:49;;;;;;;3.33;1.27;;;;;;;9.35;79.82;101733.88;5049158;28;20040;-66
2024/02/17 09:33:14;;;;;;;4.35;0.70;;;;;;;9.45;80.55;101734.09;5039367;28;20060;-66
2024/02/17 09:35:40;;;;;;;2.10;0.80;;;;;;;9.54;78.39;101730.81;5045962;28;20074;-67
2024/02/17 09:38:05;;;;;;;2.63;1.13;;;;;;;9.53;81.03;101726.53;5053207;28;20094;-67
2024/02/17 09:40:31;;;;;;;3.97;1.15;;;;;;;9.57;81.05;101726.22;5040659;28;20040;-66
2024/02/17 09:42:56;;;;;;;2.38;0.82;;;;;;;9.56;79.23;101732.38;5051262;28;20390;-66
2024/02/17 09:45:23;;;;;;;1.90;0.70;;;;;;;9.61;81.86;101730.28;5050489;28;20563;-66
2024/02/17 09:47:52;;;;;;;3.10;1.25;;;;;;;9.69;83.12;101728.91;5052875;28;20473;-66
2024/02/17 09:50:18;;;;;;;2.38;1.00;;;;;;;9.76;84.72;101735.34;5051148;28;20082;-67
2024/02/17 09:52:47;;;;;;;5.82;1.40;;;;;;;9.75;85.41;101739.72;5051741;28;20030;-67
2024/02/17 09:55:14;;;;;;;3.20;1.33;;;;;;;9.84;84.99;101735.66;5044001;28;20060;-67
2024/02/17 09:57:39;;;;;;;7.88;2.00;;;;;;;9.90;85.65;101737.81;5046677;28;20101;-67
2024/02/17 10:00:09;;;;;;;10.40;1.38;;;;;;;10.07;84.09;101741.81;5045464;28;20500;-67
2024/02/17 10:02:35;;;;;;;3.83;1.38;;;;;;;10.17;84.45;101745.41;5052210;28;20037;-67
2024/02/17 10:05:02;;;;;;;5.45;1.95;;;;;;;10.08;85.77;101744.28;5044048;28;20025;-67
2024/02/17 10:07:28;;;;;;;6.40;1.50;;;;;;;10.19;86.31;101739.19;5044137;28;20026;-67
2024/02/17 10:09:54;;;;;;;6.07;1.85;;;;;;;10.20;87.86;101747.81;5048728;28;20071;-67
2024/02/17 10:12:19;;;;;;;8.82;1.33;;;;;;;10.15;88.23;101747.28;5043217;28;20147;-68
2024/02/17 10:14:50;;;;;;;3.97;1.70;;;;;;;10.17;89.15;101748.84;5042437;28;20521;-67
2024/02/17 10:17:16;;;;;;;3.47;1.50;;;;;;;10.16;88.84;101747.19;5041978;28;20474;-67
2024/02/17 10:19:42;;;;;;;7.88;2.13;;;;;;;10.28;88.93;101751.53;5042972;28;20130;-67
2024/02/17 10:22:08;;;;;;;3.33;1.50;;;;;;;10.36;87.44;101742.34;5045664;28;20158;-67
2024/02/17 10:24:34;;;;;;;3.97;1.40;;;;;;;10.54;80.83;101746.19;5045245;28;20115;-67
2024/02/17 10:26:59;;;;;;;8.70;1.95;;;;;;;10.72;83.16;101750.03;5045038;28;20020;-67
2024/02/17 10:29:25;;;;;;;6.63;2.00;;;;;;;10.73;82.80;101751.69;5047663;28;20041;-67
2024/02/17 10:31:50;;;;;;;3.97;1.17;;;;;;;10.92;77.57;101749.34;5053411;28;20138;-67
2024/02/17 10:34:16;;;;;;;3.15;1.13;;;;;;;10.88;81.89;101750.53;5044700;28;20558;-67
2024/02/17 10:36:42;;;;;;;4.30;1.40;;;;;;;10.89;83.51;101746.97;5052050;28;20501;-68
2024/02/17 10:39:08;;;;;;;4.43;1.40;;;;;;;10.81;83.35;101749.34;5043682;28;20022;-68
2024/02/17 10:41:35;;;;;;;3.15;1.35;;;;;;;11.00;82.82;101748.78;5041554;28;20087;-67
2024/02/17 10:44:04;;;;;;;4.63;1.30;;;;;;;11.02;83.00;101738.25;5048616;28;20041;-67
2024/02/17 10:46:32;;;;;;;8.48;1.73;;;;;;;11.17;82.33;101747.50;5047415;28;20176;-68
2024/02/17 10:49:03;;;;;;;3.05;1.10;;;;;;;11.22;84.46;101740.16;5048848;28;20029;-67
2024/02/17 10:51:29;;;;;;;3.45;1.45;;;;;;;11.16;84.96;101732.81;5046265;28;20554;-68
2024/02/17 10:54:00;;;;;;;2.92;0.68;;;;;;;11.09;86.26;101736.81;5048808;28;20029;-68
2024/02/17 10:56:26;;;;;;;3.33;1.25;;;;;;;11.12;85.24;101732.22;5040732;28;20442;-68
2024/02/17 10:58:55;;;;;;;2.92;0.93;;;;;;;11.23;86.04;101734.84;5055506;28;20049;-67
2024/02/17 11:01:26;;;;;;;4.78;1.40;;;;;;;11.22;84.33;101724.50;5046774;28;20036;-68
2024/02/17 11:03:53;;;;;;;2.50;1.05;;;;;;;11.19;86.24;101728.19;5047996;28;20041;-68
2024/02/17 11:06:20;;;;;;;2.92;1.08;;;;;;;11.24;85.73;101726.06;5049305;28;20036;-71
2024/02/17 11:08:46;;;;;;;2.92;1.58;;;;;;;11.29;85.71;101723.09;5038509;28;20029;-70
2024/02/17 11:11:32;;;;;;;3.70;1.20;;;;;;;11.29;84.44;101723.09;5029305;28;20044;-70
2024/02/17 11:14:42;;;;;;;2.85;1.27;;;;;;;11.30;85.58;101720.38;5104116;27;20158;-70
2024/02/17 11:17:09;;;;;;;8.95;1.67;;;;;;;11.41;85.54;101716.91;5106309;28;20028;-71
2024/02/17 11:19:36;;;;;;;4.18;1.45;;;;;;;11.55;85.99;101719.28;5100079;28;20028;-69
2024/02/17 11:22:06;;;;;;;3.83;1.63;;;;;;;11.61;85.86;101715.34;5103456;28;20040;-69